Time;durP1;ratioP1;P1;durP2;ratioP2;P2;SDS_P1;SDS_P2;PMS_P1;PMS_P2;Temp;Humidity;BMP_temperature;BMP_pressure;BME280_temperature;BME280_humidity;BME280_pressure;Samples;Min_cycle;Max_cycle;Signal;HPM_P1;HPM_P2
2022/09/14 00:00:52;;;;;;;26.50;14.82;;;;;17.90;95676.00;;;;8429386;28;20211;-62
2022/09/14 00:05:16;;;;;;;29.75;15.45;;;;;18.00;95670.00;;;;8429944;28;20275;-62
2022/09/14 00:09:22;;;;;;;33.45;15.88;;;;;18.00;95662.00;;;;8429054;28;20553;-63
2022/09/14 00:13:56;;;;;;;27.77;14.63;;;;;18.00;95649.00;;;;8429074;28;20215;-62
2022/09/14 00:17:59;;;;;;;28.27;15.68;;;;;18.00;95623.00;;;;8427855;28;20215;-62
2022/09/14 00:22:05;;;;;;;28.60;16.83;;;;;18.10;95616.00;;;;8428202;28;20230;-63
2022/09/14 00:26:11;;;;;;;26.13;15.77;;;;;18.10;95626.00;;;;8428158;28;20223;-62
2022/09/14 00:30:14;;;;;;;21.33;13.90;;;;;18.20;95625.00;;;;8428341;28;20606;-62
2022/09/14 00:34:17;;;;;;;24.58;14.05;;;;;18.20;95630.00;;;;8428767;28;20215;-62
2022/09/14 00:38:22;;;;;;;21.50;13.65;;;;;18.30;95629.00;;;;8428160;28;20294;-62
2022/09/14 00:42:25;;;;;;;17.02;11.27;;;;;18.30;95630.00;;;;8428360;28;20219;-62
2022/09/14 00:46:30;;;;;;;24.27;13.32;;;;;18.30;95621.00;;;;8427730;28;20218;-62
2022/09/14 00:51:04;;;;;;;22.42;12.13;;;;;18.30;95615.00;;;;8428018;28;20223;-62
2022/09/14 00:55:11;;;;;;;22.05;11.73;;;;;18.20;95616.00;;;;8427593;28;20216;-62
2022/09/14 00:59:19;;;;;;;19.27;11.27;;;;;18.10;95620.00;;;;8428079;28;20223;-62
2022/09/14 01:03:22;;;;;;;22.10;11.15;;;;;18.00;95617.00;;;;8427712;28;20227;-62
2022/09/14 01:08:00;;;;;;;15.90;10.77;;;;;17.90;95618.00;;;;8427943;28;20223;-61
2022/09/14 01:12:17;;;;;;;14.80;9.02;;;;;17.80;95608.00;;;;8426473;28;20280;-63
2022/09/14 01:16:29;;;;;;;17.25;11.13;;;;;17.90;95609.00;;;;8427331;28;20235;-61
2022/09/14 01:20:37;;;;;;;24.50;12.07;;;;;17.90;95608.00;;;;8427252;28;20309;-63
2022/09/14 01:25:14;;;;;;;17.27;10.40;;;;;17.90;95602.00;;;;8427756;28;20227;-63
2022/09/14 01:29:25;;;;;;;22.05;11.45;;;;;17.80;95606.00;;;;8427196;28;20215;-62
2022/09/14 01:33:32;;;;;;;16.55;11.32;;;;;17.80;95608.00;;;;8426913;28;20630;-62
2022/09/14 01:37:41;;;;;;;25.67;11.52;;;;;17.70;95605.00;;;;8426878;28;20222;-60
2022/09/14 01:41:46;;;;;;;20.63;12.07;;;;;17.50;95585.00;;;;8427677;28;20246;-61
2022/09/14 01:46:24;;;;;;;20.65;13.07;;;;;17.40;95587.00;;;;8426984;28;20309;-61
2022/09/14 01:50:34;;;;;;;23.60;13.48;;;;;17.40;95588.00;;;;8427027;28;20234;-61
2022/09/14 01:54:42;;;;;;;32.85;15.55;;;;;17.30;95581.00;;;;8426422;28;20222;-62
2022/09/14 01:58:48;;;;;;;30.58;15.95;;;;;17.30;95584.00;;;;8426611;28;20224;-62
2022/09/14 02:02:56;;;;;;;28.55;15.65;;;;;17.30;95584.00;;;;8432266;28;20234;-61
2022/09/14 02:07:00;;;;;;;27.27;15.95;;;;;17.30;95578.00;;;;8433212;28;20222;-61
2022/09/14 02:11:03;;;;;;;26.42;15.27;;;;;17.40;95574.00;;;;8431995;28;20214;-62
2022/09/14 02:15:40;;;;;;;31.55;14.70;;;;;17.40;95563.00;;;;8432684;28;20269;-62
2022/09/14 02:19:49;;;;;;;26.75;14.55;;;;;17.40;95561.00;;;;8431796;28;20226;-62
2022/09/14 02:23:54;;;;;;;34.17;16.88;;;;;17.40;95547.00;;;;8433057;28;20242;-62
2022/09/14 02:27:57;;;;;;;39.28;16.92;;;;;17.50;95539.00;;;;8432305;28;20229;-63
2022/09/14 02:32:10;;;;;;;32.75;17.45;;;;;17.50;95537.00;;;;8432452;28;20223;-63
2022/09/14 02:36:22;;;;;;;32.13;16.38;;;;;17.40;95531.00;;;;8431989;28;20212;-63
2022/09/14 02:40:32;;;;;;;29.58;15.80;;;;;17.40;95525.00;;;;8431751;28;20556;-62
2022/09/14 02:45:04;;;;;;;30.27;16.63;;;;;17.40;95516.00;;;;8430962;28;20223;-63
2022/09/14 02:49:16;;;;;;;32.75;16.13;;;;;17.40;95529.00;;;;8431439;28;20215;-63
2022/09/14 02:53:27;;;;;;;28.15;15.73;;;;;17.40;95532.00;;;;8431383;28;20226;-63
2022/09/14 02:57:30;;;;;;;25.25;14.73;;;;;17.50;95522.00;;;;8431764;28;20211;-63
2022/09/14 03:01:33;;;;;;;24.73;14.77;;;;;17.40;95504.00;;;;8431072;28;20234;-63
2022/09/14 03:06:07;;;;;;;29.85;15.13;;;;;17.40;95488.00;;;;8430969;28;20544;-63
2022/09/14 03:10:12;;;;;;;30.20;16.05;;;;;17.40;95463.00;;;;8430947;28;20238;-63
2022/09/14 03:14:15;;;;;;;29.42;16.05;;;;;17.40;95462.00;;;;8430677;28;20683;-63
2022/09/14 03:18:18;;;;;;;24.48;14.93;;;;;17.40;95466.00;;;;8430496;28;20680;-62
2022/09/14 03:22:52;;;;;;;25.05;14.68;;;;;17.40;95453.00;;;;8430841;28;20215;-63
2022/09/14 03:26:56;;;;;;;23.02;13.50;;;;;17.40;95464.00;;;;8430220;28;20637;-62
2022/09/14 03:31:01;;;;;;;23.17;13.50;;;;;17.40;95461.00;;;;8429730;28;20230;-62
2022/09/14 03:35:05;;;;;;;23.42;12.85;;;;;17.40;95468.00;;;;8430626;28;20223;-63
2022/09/14 03:39:39;;;;;;;28.50;14.45;;;;;17.40;95495.00;;;;8429573;28;20246;-62
2022/09/14 03:43:44;;;;;;;20.75;13.20;;;;;17.30;95517.00;;;;8430124;28;20234;-63
2022/09/14 03:47:48;;;;;;;30.02;16.58;;;;;17.30;95534.00;;;;8430047;28;20222;-65
2022/09/14 03:51:51;;;;;;;35.45;14.98;;;;;17.30;95606.00;;;;8429986;28;20231;-65
2022/09/14 03:56:26;;;;;;;28.67;14.15;;;;;17.20;95571.00;;;;8429349;28;20227;-71
2022/09/14 04:00:31;;;;;;;30.98;13.13;;;;;17.10;95556.00;;;;8429744;28;20230;-70
2022/09/14 04:04:34;;;;;;;34.15;14.90;;;;;17.20;95546.00;;;;8429076;28;20215;-67
2022/09/14 04:08:40;;;;;;;31.92;14.52;;;;;17.20;95524.00;;;;8429217;28;20231;-71
2022/09/14 04:12:43;;;;;;;30.13;15.05;;;;;17.10;95510.00;;;;8428695;28;20223;-74
2022/09/14 04:16:47;;;;;;;30.15;14.15;;;;;17.10;95505.00;;;;8428762;28;20231;-72
2022/09/14 04:20:55;;;;;;;29.63;14.30;;;;;17.10;95502.00;;;;8428605;28;20227;-70
2022/09/14 04:24:58;;;;;;;26.05;12.82;;;;;17.10;95494.00;;;;8427997;28;20219;-72
2022/09/14 04:29:01;;;;;;;35.15;14.40;;;;;17.10;95473.00;;;;8428345;28;20226;-71
2022/09/14 04:33:06;;;;;;;32.00;12.82;;;;;17.10;95500.00;;;;8428244;28;20211;-77
2022/09/14 04:37:09;;;;;;;34.88;14.18;;;;;17.10;95484.00;;;;8428185;28;20227;-72
2022/09/14 04:41:45;;;;;;;32.42;13.48;;;;;17.10;95475.00;;;;8427810;28;20227;-71
2022/09/14 04:45:49;;;;;;;35.90;13.82;;;;;17.10;95554.00;;;;8428421;28;20227;-68
2022/09/14 04:49:53;;;;;;;37.00;12.45;;;;;17.00;95576.00;;;;8427430;28;20318;-74
2022/09/14 04:53:58;;;;;;;37.00;12.05;;;;;16.90;95529.00;;;;8428035;28;20223;-74
2022/09/14 04:58:01;;;;;;;31.35;12.80;;;;;17.00;95484.00;;;;8427384;28;20292;-73
2022/09/14 05:02:04;;;;;;;28.90;12.60;;;;;17.00;95472.00;;;;8427642;28;20226;-74
2022/09/14 05:06:11;;;;;;;32.00;12.48;;;;;17.10;95459.00;;;;8427214;28;20712;-73
2022/09/14 05:10:14;;;;;;;29.40;13.43;;;;;17.10;95441.00;;;;8427917;28;20211;-72
2022/09/14 05:14:18;;;;;;;34.00;15.13;;;;;17.10;95441.00;;;;8427657;28;20215;-69
2022/09/14 05:18:20;;;;;;;37.53;14.95;;;;;17.10;95432.00;;;;8427857;28;20230;-69
2022/09/14 05:22:59;;;;;;;36.20;14.93;;;;;17.10;95432.00;;;;8427294;28;20219;-69
2022/09/14 05:27:02;;;;;;;40.15;16.25;;;;;17.10;95454.00;;;;8427486;28;20683;-68
2022/09/14 05:31:06;;;;;;;46.17;17.60;;;;;17.00;95478.00;;;;8427959;28;20276;-68
2022/09/14 05:35:10;;;;;;;46.40;17.17;;;;;17.00;95475.00;;;;8428211;28;20222;-69
2022/09/14 05:39:45;;;;;;;43.85;15.23;;;;;17.10;95461.00;;;;8433405;28;20578;-75
2022/09/14 05:43:48;;;;;;;44.25;16.17;;;;;17.10;95453.00;;;;8433409;28;20294;-70
2022/09/14 05:47:52;;;;;;;36.35;16.23;;;;;17.10;95492.00;;;;8433386;28;20230;-70
2022/09/14 05:51:55;;;;;;;40.65;16.00;;;;;17.10;95458.00;;;;8433092;28;20293;-71
2022/09/14 05:56:33;;;;;;;33.03;13.65;;;;;17.10;95421.00;;;;8433060;28;20231;-77
2022/09/14 06:00:38;;;;;;;41.45;15.18;;;;;17.10;95421.00;;;;8432948;28;20219;-81
2022/09/14 06:04:41;;;;;;;32.70;13.43;;;;;17.10;95418.00;;;;8432545;28;20294;-69
2022/09/14 06:09:18;;;;;;;32.35;13.50;;;;;17.20;95414.00;;;;8432106;28;20246;-68
2022/09/14 06:13:23;;;;;;;34.05;14.55;;;;;17.20;95409.00;;;;8432815;28;20223;-68
2022/09/14 06:17:26;;;;;;;26.92;12.13;;;;;17.30;95409.00;;;;8431992;28;20272;-67
2022/09/14 06:21:31;;;;;;;35.40;13.55;;;;;17.30;95390.00;;;;8432181;28;20580;-67
2022/09/14 06:25:34;;;;;;;37.17;14.43;;;;;17.50;95392.00;;;;8431468;28;20215;-67
2022/09/14 06:29:38;;;;;;;32.40;13.95;;;;;17.60;95377.00;;;;8432165;28;20226;-67
2022/09/14 06:33:44;;;;;;;33.72;14.13;;;;;17.60;95380.00;;;;8431300;28;20215;-67
2022/09/14 06:38:18;;;;;;;36.85;15.18;;;;;17.50;95391.00;;;;8431077;28;20599;-66
2022/09/14 06:42:21;;;;;;;29.60;12.52;;;;;17.50;95382.00;;;;8431082;28;20294;-69
2022/09/14 06:46:28;;;;;;;29.52;11.82;;;;;17.50;95388.00;;;;8429733;28;20219;-69
2022/09/14 06:50:31;;;;;;;29.73;11.55;;;;;17.40;95386.00;;;;8430975;28;20239;-73
2022/09/14 06:54:34;;;;;;;27.77;10.52;;;;;17.40;95388.00;;;;8431664;28;20230;-72
2022/09/14 06:58:37;;;;;;;27.77;9.70;;;;;17.30;95404.00;;;;8431380;28;20230;-77
2022/09/14 07:02:41;;;;;;;15.93;8.02;;;;;17.20;95386.00;;;;8430533;28;20223;-69
2022/09/14 07:06:45;;;;;;;16.17;6.95;;;;;17.30;95382.00;;;;8429929;28;20255;-73
2022/09/14 07:10:56;;;;;;;18.85;7.82;;;;;17.30;95375.00;;;;8431432;28;20556;-69
2022/09/14 07:14:58;;;;;;;18.77;6.40;;;;;17.30;95383.00;;;;8430021;28;20223;-76
2022/09/14 07:19:05;;;;;;;14.45;6.55;;;;;17.30;95369.00;;;;8430465;28;20219;-78
2022/09/14 07:23:37;;;;;;;14.35;6.93;;;;;17.30;95377.00;;;;8430455;28;20702;-72
2022/09/14 07:27:40;;;;;;;13.13;6.72;;;;;17.40;95407.00;;;;8429996;28;20257;-71
2022/09/14 07:31:44;;;;;;;13.57;6.47;;;;;17.40;95412.00;;;;8429769;28;20231;-71
2022/09/14 07:36:19;;;;;;;16.08;6.40;;;;;17.30;95383.00;;;;8429110;28;20227;-71
2022/09/14 07:40:22;;;;;;;12.15;5.93;;;;;17.40;95399.00;;;;8429756;28;20530;-74
2022/09/14 07:44:25;;;;;;;20.02;7.32;;;;;17.40;95393.00;;;;8429775;28;20219;-74
2022/09/14 07:48:28;;;;;;;15.45;6.93;;;;;17.40;95372.00;;;;8429979;28;20273;-71
2022/09/14 07:52:33;;;;;;;18.88;7.88;;;;;17.50;95369.00;;;;8429770;28;20219;-69
2022/09/14 07:56:41;;;;;;;15.23;7.50;;;;;17.50;95400.00;;;;8429593;28;20302;-72
2022/09/14 08:00:44;;;;;;;17.80;8.25;;;;;17.50;95391.00;;;;8427977;28;20314;-74
2022/09/14 08:04:47;;;;;;;14.93;7.90;;;;;17.60;95396.00;;;;8428391;28;20223;-74
2022/09/14 08:09:26;;;;;;;17.92;8.50;;;;;17.60;95416.00;;;;8428862;28;20288;-74
2022/09/14 08:13:29;;;;;;;17.80;8.73;;;;;17.60;95419.00;;;;8428882;28;20226;-74
2022/09/14 08:17:32;;;;;;;17.42;9.18;;;;;17.70;95419.00;;;;8427660;28;20665;-75
2022/09/14 08:22:09;;;;;;;20.90;9.30;;;;;17.80;95406.00;;;;8429244;28;20341;-75
2022/09/14 08:26:15;;;;;;;20.58;9.70;;;;;17.90;95411.00;;;;8428478;28;20314;-74
2022/09/14 08:30:18;;;;;;;23.38;9.27;;;;;18.10;95416.00;;;;8428226;28;20207;-74
2022/09/14 08:34:55;;;;;;;25.60;11.48;;;;;18.30;95412.00;;;;8427741;28;20233;-74
2022/09/14 08:39:00;;;;;;;25.33;11.77;;;;;18.60;95408.00;;;;8428206;28;20211;-74
2022/09/14 08:43:04;;;;;;;29.02;13.13;;;;;18.90;95401.00;;;;8427291;28;20251;-73
2022/09/14 08:47:12;;;;;;;26.08;12.98;;;;;19.30;95399.00;;;;8427732;28;20232;-73
2022/09/14 08:51:16;;;;;;;27.10;12.45;;;;;19.80;95388.00;;;;8427512;28;20223;-71
2022/09/14 08:55:53;;;;;;;25.08;11.63;;;;;20.30;95387.00;;;;8427877;28;20269;-71
2022/09/14 09:00:07;;;;;;;23.25;12.57;;;;;20.60;95392.00;;;;8427506;28;20223;-70
2022/09/14 09:04:26;;;;;;;26.23;13.25;;;;;20.90;95385.00;;;;8427226;28;20227;-70
2022/09/14 09:08:34;;;;;;;21.52;12.52;;;;;21.70;95395.00;;;;8427325;28;20231;-70
2022/09/14 09:12:41;;;;;;;22.73;11.75;;;;;22.10;95394.00;;;;8407866;28;20247;-70
2022/09/14 09:16:49;;;;;;;21.83;12.60;;;;;22.50;95392.00;;;;8387027;28;20674;-68
2022/09/14 09:21:21;;;;;;;19.13;11.02;;;;;22.70;95406.00;;;;8359306;28;20613;-68
2022/09/14 09:25:30;;;;;;;25.90;11.98;;;;;22.70;95410.00;;;;8360189;28;20232;-68
2022/09/14 09:29:33;;;;;;;18.60;11.73;;;;;22.40;95411.00;;;;8361011;28;20222;-68
2022/09/14 09:33:37;;;;;;;21.60;11.73;;;;;22.10;95433.00;;;;8360519;28;20274;-68
2022/09/14 09:37:40;;;;;;;23.13;13.07;;;;;21.80;95432.00;;;;8360333;28;20580;-68
2022/09/14 09:41:47;;;;;;;23.58;13.57;;;;;21.60;95434.00;;;;8360598;28;20232;-67
2022/09/14 09:45:54;;;;;;;28.58;15.38;;;;;21.60;95429.00;;;;8359684;28;20627;-68
2022/09/14 09:50:00;;;;;;;29.25;16.35;;;;;21.60;95425.00;;;;8360291;28;20657;-67
2022/09/14 09:54:09;;;;;;;28.20;16.75;;;;;21.80;95422.00;;;;8359863;28;20229;-67
2022/09/14 09:58:27;;;;;;;29.33;17.17;;;;;22.70;95428.00;;;;8359896;28;20554;-67
2022/09/14 10:02:31;;;;;;;23.48;12.98;;;;;23.70;95405.00;;;;8360016;28;20217;-67
2022/09/14 10:07:19;;;;;;;16.40;10.63;;;;;24.30;95418.00;;;;8360589;28;20216;-67
2022/09/14 10:11:30;;;;;;;16.13;9.57;;;;;24.40;95422.00;;;;8359771;28;20231;-67
2022/09/14 10:15:35;;;;;;;13.32;8.30;;;;;24.50;95415.00;;;;8360387;28;20690;-65
2022/09/14 10:20:20;;;;;;;12.98;7.72;;;;;24.70;95416.00;;;;8359846;28;20232;-65
2022/09/14 10:24:24;;;;;;;9.52;6.63;;;;;24.90;95420.00;;;;8364998;28;20613;-65
2022/09/14 10:28:28;;;;;;;9.07;6.78;;;;;24.80;95423.00;;;;8364625;28;20661;-66
2022/09/14 10:32:33;;;;;;;9.73;5.95;;;;;24.60;95415.00;;;;8364995;28;20228;-65
2022/09/14 10:37:12;;;;;;;12.15;5.30;;;;;24.50;95408.00;;;;8365380;28;20252;-66
2022/09/14 10:41:29;;;;;;;10.60;6.03;;;;;24.10;95403.00;;;;8364375;28;20704;-66
2022/09/14 10:45:35;;;;;;;5.25;4.75;;;;;24.10;95390.00;;;;8365410;28;20241;-66
2022/09/14 10:50:20;;;;;;;5.30;4.35;;;;;24.30;95380.00;;;;8364988;28;20649;-66
2022/09/14 10:54:44;;;;;;;7.13;5.32;;;;;24.80;95376.00;;;;8364546;28;20248;-66
2022/09/14 10:59:05;;;;;;;6.75;4.93;;;;;24.80;95384.00;;;;8364134;28;20216;-65
2022/09/14 11:03:27;;;;;;;8.57;4.82;;;;;25.00;95385.00;;;;8364273;28;20216;-66
2022/09/14 11:07:37;;;;;;;9.00;4.68;;;;;24.90;95381.00;;;;8363606;28;20211;-66
2022/09/14 11:11:52;;;;;;;5.28;3.78;;;;;25.40;95373.00;;;;8364048;28;20244;-66
2022/09/14 11:16:01;;;;;;;4.60;4.18;;;;;25.70;95377.00;;;;8363393;28;20216;-66
2022/09/14 11:20:17;;;;;;;4.07;3.60;;;;;25.90;95369.00;;;;8364747;28;20305;-66
2022/09/14 11:24:43;;;;;;;6.28;3.70;;;;;26.50;95365.00;;;;8364038;28;20220;-65
2022/09/14 11:28:52;;;;;;;4.32;3.13;;;;;26.60;95373.00;;;;8364080;28;20223;-66
2022/09/14 11:33:28;;;;;;;3.95;2.97;;;;;26.80;95360.00;;;;8363396;28;20665;-65
2022/09/14 11:37:39;;;;;;;4.70;3.22;;;;;26.90;95354.00;;;;8363745;28;20312;-66
2022/09/14 11:41:48;;;;;;;3.25;2.90;;;;;26.60;95339.00;;;;8363013;28;20232;-66
2022/09/14 11:45:55;;;;;;;4.47;2.83;;;;;26.70;95334.00;;;;8363550;28;20220;-66
2022/09/14 11:50:05;;;;;;;3.88;2.80;;;;;27.00;95330.00;;;;8361931;28;20223;-66
2022/09/14 11:54:25;;;;;;;2.90;2.65;;;;;26.60;95325.00;;;;8362958;28;20216;-66
2022/09/14 11:58:29;;;;;;;7.07;3.08;;;;;26.60;95327.00;;;;8362151;28;20239;-66
2022/09/14 12:03:01;;;;;;;3.28;2.78;;;;;26.30;95338.00;;;;8362161;28;20220;-67
2022/09/14 12:07:05;;;;;;;3.95;2.78;;;;;26.00;95336.00;;;;8362802;28;20216;-66
2022/09/14 12:11:39;;;;;;;3.78;3.00;;;;;25.90;95326.00;;;;8361901;28;20224;-67
2022/09/14 12:15:43;;;;;;;3.13;2.83;;;;;26.00;95341.00;;;;8362887;28;20785;-66
2022/09/14 12:19:49;;;;;;;4.95;2.50;;;;;25.80;95345.00;;;;8361622;28;20645;-66
2022/09/14 12:23:56;;;;;;;2.97;2.75;;;;;25.70;95340.00;;;;8362018;28;20224;-66
2022/09/14 12:28:00;;;;;;;3.85;2.40;;;;;25.90;95335.00;;;;8360758;28;20593;-66
2022/09/14 12:32:05;;;;;;;2.85;2.40;;;;;26.20;95335.00;;;;8361721;28;20248;-66
2022/09/14 12:36:09;;;;;;;5.38;2.85;;;;;26.40;95330.00;;;;8361139;28;20223;-66
2022/09/14 12:40:45;;;;;;;2.72;2.53;;;;;26.40;95336.00;;;;8361622;28;20224;-66
2022/09/14 12:44:47;;;;;;;5.63;2.90;;;;;26.40;95336.00;;;;8360575;28;20217;-66
2022/09/14 12:49:01;;;;;;;2.95;2.65;;;;;26.70;95333.00;;;;8361487;28;20270;-66
2022/09/14 12:53:33;;;;;;;3.20;2.67;;;;;26.80;95329.00;;;;8360570;28;20251;-66
2022/09/14 12:57:46;;;;;;;4.55;2.50;;;;;26.90;95335.00;;;;8360594;28;20226;-66
2022/09/14 13:01:57;;;;;;;4.32;2.85;;;;;27.10;95352.00;;;;8361582;28;20606;-66
2022/09/14 13:06:33;;;;;;;8.25;2.88;;;;;27.00;95338.00;;;;8361130;28;20281;-66
2022/09/14 13:10:39;;;;;;;4.53;2.90;;;;;27.00;95347.00;;;;8361320;28;20248;-66
2022/09/14 13:14:48;;;;;;;3.03;2.60;;;;;27.00;95358.00;;;;8361035;28;20228;-66
2022/09/14 13:24:30;;;;;;;4.28;2.58;;;;;27.20;95363.00;;;;8360292;28;20242;-66
2022/09/14 13:28:33;;;;;;;5.10;2.78;;;;;27.40;95356.00;;;;8360304;28;20243;-65
2022/09/14 13:33:15;;;;;;;5.05;2.67;;;;;27.60;95345.00;;;;8359647;28;20235;-66
2022/09/14 13:37:20;;;;;;;5.57;2.75;;;;;28.00;95334.00;;;;8360054;28;20212;-65
2022/09/14 13:41:23;;;;;;;7.25;2.80;;;;;28.00;95326.00;;;;8359914;28;20248;-65
2022/09/14 13:45:26;;;;;;;4.72;2.75;;;;;28.20;95323.00;;;;8359335;28;20262;-65
2022/09/14 13:50:06;;;;;;;2.85;2.60;;;;;28.20;95324.00;;;;8359246;28;20519;-65
2022/09/14 13:54:28;;;;;;;7.68;2.83;;;;;28.30;95334.00;;;;8360395;28;20216;-66
2022/09/14 13:58:31;;;;;;;4.43;2.72;;;;;28.30;95321.00;;;;8364346;28;20719;-65
2022/09/14 14:02:37;;;;;;;3.42;3.00;;;;;28.40;95310.00;;;;8365754;28;20228;-65
2022/09/14 14:06:59;;;;;;;7.18;2.92;;;;;28.60;95312.00;;;;8365623;28;20229;-65
2022/09/14 14:11:04;;;;;;;4.57;3.00;;;;;28.70;95303.00;;;;8366125;28;20212;-65
2022/09/14 14:15:36;;;;;;;7.30;2.70;;;;;28.70;95297.00;;;;8365946;28;20216;-66
2022/09/14 14:19:40;;;;;;;6.88;2.97;;;;;28.50;95281.00;;;;8365151;28;20582;-65
2022/09/14 14:23:44;;;;;;;5.10;2.85;;;;;28.30;95264.00;;;;8365920;28;20224;-65
2022/09/14 14:28:16;;;;;;;3.13;2.83;;;;;28.20;95259.00;;;;8365205;28;20216;-66
2022/09/14 14:32:43;;;;;;;4.00;2.85;;;;;28.10;95272.00;;;;8365443;28;20616;-65
2022/09/14 14:36:48;;;;;;;3.50;2.65;;;;;27.90;95271.00;;;;8364275;28;20248;-65
2022/09/14 14:40:56;;;;;;;5.90;2.83;;;;;27.60;95269.00;;;;8365231;28;20241;-66
2022/09/14 14:45:00;;;;;;;5.80;2.95;;;;;27.50;95262.00;;;;8364943;28;20232;-65
2022/09/14 14:49:03;;;;;;;3.65;3.30;;;;;27.50;95263.00;;;;8364875;28;20265;-65
2022/09/14 14:53:06;;;;;;;3.78;2.78;;;;;27.70;95247.00;;;;8364535;28;20622;-65
2022/09/14 14:57:44;;;;;;;4.90;3.05;;;;;27.90;95245.00;;;;8364960;28;20619;-65
2022/09/14 15:01:47;;;;;;;6.38;3.08;;;;;28.20;95248.00;;;;8364574;28;20273;-65
2022/09/14 15:05:50;;;;;;;5.15;2.72;;;;;28.30;95246.00;;;;8364297;28;20275;-65
2022/09/14 15:10:28;;;;;;;4.55;2.85;;;;;28.10;95243.00;;;;8363084;28;20243;-65
2022/09/14 15:14:32;;;;;;;3.00;2.80;;;;;28.10;95232.00;;;;8364210;28;20247;-65
2022/09/14 15:18:35;;;;;;;5.20;3.10;;;;;28.00;95232.00;;;;8363688;28;20314;-65
2022/09/14 15:23:12;;;;;;;5.85;3.10;;;;;27.60;95212.00;;;;8363347;28;20335;-65
2022/09/14 15:27:15;;;;;;;7.32;3.10;;;;;27.30;95212.00;;;;8363552;28;20270;-65
2022/09/14 15:31:20;;;;;;;4.57;3.00;;;;;26.80;95204.00;;;;8363173;28;20224;-66
2022/09/14 15:35:57;;;;;;;7.15;2.97;;;;;26.50;95184.00;;;;8363319;28;20221;-65
2022/09/14 15:40:00;;;;;;;4.97;3.70;;;;;26.30;95197.00;;;;8362945;28;20216;-65
2022/09/14 15:44:03;;;;;;;10.45;4.15;;;;;26.00;95193.00;;;;8363420;28;20224;-66
2022/09/14 15:48:07;;;;;;;5.35;3.85;;;;;25.60;95192.00;;;;8362581;28;20216;-65
2022/09/14 15:52:41;;;;;;;6.60;3.80;;;;;25.10;95193.00;;;;8363040;28;20282;-64
2022/09/14 15:56:48;;;;;;;24.50;5.03;;;;;24.40;95272.00;;;;8362343;28;20240;-70
2022/09/14 16:00:51;;;;;;;12.15;1.88;;;;;22.40;95308.00;;;;8363313;28;20232;-76
2022/09/14 16:05:26;;;;;;;4.30;2.13;;;;;21.20;95318.00;;;;8362694;28;20232;-65
2022/09/14 16:09:29;;;;;;;14.50;2.40;;;;;20.60;95289.00;;;;8362340;28;20232;-79
2022/09/14 16:13:33;;;;;;;1.50;1.23;;;;;20.20;95293.00;;;;8361717;28;20231;-79
2022/09/14 16:17:35;;;;;;;1.73;1.40;;;;;19.90;95317.00;;;;8374858;28;20254;-70
2022/09/14 16:21:41;;;;;;;6.25;1.60;;;;;19.70;95322.00;;;;8395468;28;20220;-71
2022/09/14 16:25:44;;;;;;;6.28;2.00;;;;;19.60;95353.00;;;;8395466;28;20243;-71
2022/09/14 16:29:47;;;;;;;6.85;1.80;;;;;19.70;95325.00;;;;8395757;28;20659;-78
2022/09/14 16:34:25;;;;;;;5.53;1.63;;;;;19.70;95294.00;;;;8394487;28;20219;-79
2022/09/14 16:38:31;;;;;;;6.07;1.85;;;;;19.80;95286.00;;;;8394800;28;20216;-75
2022/09/14 16:42:33;;;;;;;2.97;1.80;;;;;19.80;95287.00;;;;8393910;28;20235;-72
2022/09/14 16:46:36;;;;;;;2.47;1.63;;;;;19.90;95283.00;;;;8394881;28;20669;-71
2022/09/14 16:51:14;;;;;;;5.00;1.98;;;;;19.90;95276.00;;;;8394335;28;20315;-71
2022/09/14 16:55:18;;;;;;;4.43;1.88;;;;;20.00;95274.00;;;;8394760;28;20270;-73
2022/09/14 16:59:22;;;;;;;3.10;2.00;;;;;20.00;95292.00;;;;8393987;28;20211;-71
2022/09/14 17:03:27;;;;;;;2.40;1.60;;;;;19.90;95275.00;;;;8394293;28;20623;-77
2022/09/14 17:08:01;;;;;;;5.90;1.65;;;;;19.90;95257.00;;;;8394121;28;20247;-75
2022/09/14 17:12:06;;;;;;;7.07;1.70;;;;;19.80;95247.00;;;;8394572;28;20573;-73
2022/09/14 17:16:11;;;;;;;8.68;1.77;;;;;19.70;95246.00;;;;8392958;28;20577;-73
2022/09/14 17:20:33;;;;;;;7.68;1.92;;;;;19.60;95220.00;;;;8394671;28;20273;-71
2022/09/14 17:24:36;;;;;;;3.65;1.65;;;;;19.50;95211.00;;;;8394052;28;20219;-70
2022/09/14 17:28:43;;;;;;;8.32;1.60;;;;;19.40;95217.00;;;;8394043;28;20207;-67
2022/09/14 17:32:46;;;;;;;9.02;1.70;;;;;19.40;95249.00;;;;8398066;28;20681;-67
2022/09/14 17:36:49;;;;;;;4.55;1.85;;;;;19.40;95256.00;;;;8400688;28;20232;-68
2022/09/14 17:40:52;;;;;;;3.75;2.22;;;;;19.30;95268.00;;;;8399718;28;20281;-67
2022/09/14 17:44:57;;;;;;;5.07;2.15;;;;;19.30;95268.00;;;;8399680;28;20227;-67
2022/09/14 17:49:30;;;;;;;4.55;1.80;;;;;19.30;95275.00;;;;8399718;28;20626;-67
2022/09/14 17:53:37;;;;;;;7.30;2.00;;;;;19.30;95276.00;;;;8400440;28;20212;-67
2022/09/14 17:57:40;;;;;;;6.75;1.98;;;;;19.30;95288.00;;;;8399669;28;20220;-67
2022/09/14 18:02:14;;;;;;;4.25;2.03;;;;;19.10;95286.00;;;;8400080;28;20730;-67
2022/09/14 18:06:19;;;;;;;4.90;2.33;;;;;19.00;95291.00;;;;8399654;28;20216;-66
2022/09/14 18:10:22;;;;;;;8.02;2.10;;;;;19.00;95288.00;;;;8399731;28;20257;-67
2022/09/14 18:14:25;;;;;;;5.38;2.05;;;;;18.80;95294.00;;;;8399455;28;20223;-67
2022/09/14 18:18:28;;;;;;;4.95;1.77;;;;;18.70;95323.00;;;;8399057;28;20226;-67
2022/09/14 18:22:33;;;;;;;4.43;1.80;;;;;18.60;95336.00;;;;8398774;28;20223;-67
2022/09/14 18:26:37;;;;;;;6.25;2.97;;;;;18.50;95342.00;;;;8398837;28;20254;-67
2022/09/14 18:31:15;;;;;;;4.32;2.13;;;;;18.50;95338.00;;;;8399464;28;20231;-67
2022/09/14 18:35:18;;;;;;;10.18;3.10;;;;;18.40;95342.00;;;;8398143;28;20327;-67
2022/09/14 18:39:22;;;;;;;10.15;2.72;;;;;18.30;95341.00;;;;8399256;28;20220;-67
2022/09/14 18:43:26;;;;;;;6.72;3.22;;;;;18.30;95336.00;;;;8398471;28;20235;-68
2022/09/14 18:48:02;;;;;;;6.30;2.83;;;;;18.20;95349.00;;;;8398999;28;20269;-68
2022/09/14 18:52:06;;;;;;;10.70;3.38;;;;;18.20;95354.00;;;;8398071;28;20561;-68
2022/09/14 18:56:12;;;;;;;8.43;3.15;;;;;18.20;95350.00;;;;8398697;28;20755;-68
2022/09/14 19:00:46;;;;;;;5.03;3.72;;;;;18.30;95356.00;;;;8398141;28;20212;-68
2022/09/14 19:04:50;;;;;;;9.43;3.33;;;;;18.30;95365.00;;;;8398201;28;20224;-67
2022/09/14 19:08:53;;;;;;;7.65;3.28;;;;;18.30;95353.00;;;;8398015;28;20220;-68
2022/09/14 19:13:31;;;;;;;5.57;3.25;;;;;18.40;95343.00;;;;8397920;28;20236;-65
2022/09/14 19:17:34;;;;;;;6.28;3.67;;;;;18.40;95339.00;;;;8396782;28;20227;-68
2022/09/14 19:21:37;;;;;;;6.30;3.80;;;;;18.40;95336.00;;;;8397207;28;20561;-68
2022/09/14 19:25:43;;;;;;;8.07;4.15;;;;;18.40;95331.00;;;;8397537;28;20224;-68
2022/09/14 19:29:47;;;;;;;8.35;3.78;;;;;18.40;95336.00;;;;8397181;28;20304;-68
2022/09/14 19:33:51;;;;;;;10.05;4.32;;;;;18.40;95340.00;;;;8396435;28;20231;-68
2022/09/14 19:38:28;;;;;;;9.80;3.75;;;;;18.40;95326.00;;;;8396938;28;20666;-68
2022/09/14 19:42:32;;;;;;;14.45;3.60;;;;;18.50;95331.00;;;;8396253;28;20216;-68
2022/09/14 19:46:38;;;;;;;11.07;3.63;;;;;18.50;95334.00;;;;8397333;28;20219;-68
2022/09/14 19:50:41;;;;;;;9.52;4.10;;;;;18.50;95333.00;;;;8396599;28;20273;-68
2022/09/14 19:55:18;;;;;;;9.20;3.70;;;;;18.50;95334.00;;;;8395893;28;20227;-68
2022/09/14 19:59:22;;;;;;;9.23;3.65;;;;;18.40;95329.00;;;;8395837;28;20230;-68
2022/09/14 20:03:26;;;;;;;13.82;3.15;;;;;18.50;95329.00;;;;8396082;28;20219;-68
2022/09/14 20:07:29;;;;;;;6.53;3.35;;;;;18.50;95327.00;;;;8395821;28;20543;-68
2022/09/14 20:11:34;;;;;;;7.57;3.08;;;;;18.50;95332.00;;;;8395805;28;20212;-68
2022/09/14 20:15:37;;;;;;;11.45;3.58;;;;;18.50;95313.00;;;;8395818;28;20224;-68
2022/09/14 20:19:41;;;;;;;5.40;2.92;;;;;18.50;95299.00;;;;8395607;28;20224;-68
2022/09/14 20:24:17;;;;;;;5.78;3.50;;;;;18.40;95299.00;;;;8395898;28;20223;-68
2022/09/14 20:28:25;;;;;;;12.52;4.35;;;;;18.40;95301.00;;;;8394960;28;20216;-68
2022/09/14 20:32:29;;;;;;;4.68;3.22;;;;;18.40;95298.00;;;;8395304;28;20216;-67
2022/09/14 20:37:05;;;;;;;8.20;3.78;;;;;18.30;95301.00;;;;8395089;28;20269;-65
2022/09/14 20:41:09;;;;;;;9.48;3.55;;;;;18.30;95293.00;;;;8394781;28;20233;-65
2022/09/14 20:45:14;;;;;;;6.65;3.45;;;;;18.30;95302.00;;;;8426269;28;20474;-66
2022/09/14 20:49:19;;;;;;;6.80;3.50;;;;;18.20;95294.00;;;;8427768;28;20219;-65